sensor_id;sensor_type;location;lat;lon;timestamp;temperature;humidity
17986;DHT22;9118;48.122;11.546;2023-08-30T00:01:31;13.10;99.90
17986;DHT22;9118;48.122;11.546;2023-08-30T00:03:59;13.10;99.90
17986;DHT22;9118;48.122;11.546;2023-08-30T00:06:26;13.20;99.90
17986;DHT22;9118;48.122;11.546;2023-08-30T00:08:53;13.20;99.90
17986;DHT22;9118;48.122;11.546;2023-08-30T00:11:23;13.20;99.90
17986;DHT22;9118;48.122;11.546;2023-08-30T00:13:51;13.20;99.90
17986;DHT22;9118;48.122;11.546;2023-08-30T00:16:18;13.10;99.90
17986;DHT22;9118;48.122;11.546;2023-08-30T00:18:45;13.20;99.90
17986;DHT22;9118;48.122;11.546;2023-08-30T00:21:12;13.20;99.90
17986;DHT22;9118;48.122;11.546;2023-08-30T00:23:39;13.10;99.90
17986;DHT22;9118;48.122;11.546;2023-08-30T00:26:06;13.10;99.90
17986;DHT22;9118;48.122;11.546;2023-08-30T00:28:35;13.10;99.90
17986;DHT22;9118;48.122;11.546;2023-08-30T00:31:02;13.10;99.90
17986;DHT22;9118;48.122;11.546;2023-08-30T00:33:29;13.00;99.90
17986;DHT22;9118;48.122;11.546;2023-08-30T00:35:56;13.00;99.90
17986;DHT22;9118;48.122;11.546;2023-08-30T00:38:25;12.90;99.90
17986;DHT22;9118;48.122;11.546;2023-08-30T00:40:52;12.90;99.90
17986;DHT22;9118;48.122;11.546;2023-08-30T00:43:19;13.00;99.90
17986;DHT22;9118;48.122;11.546;2023-08-30T00:45:49;13.10;99.90
17986;DHT22;9118;48.122;11.546;2023-08-30T00:48:17;13.10;99.90
17986;DHT22;9118;48.122;11.546;2023-08-30T00:50:46;13.20;99.90
17986;DHT22;9118;48.122;11.546;2023-08-30T00:53:13;13.20;99.90
17986;DHT22;9118;48.122;11.546;2023-08-30T00:55:42;13.20;99.90
17986;DHT22;9118;48.122;11.546;2023-08-30T00:58:09;13.30;99.90
17986;DHT22;9118;48.122;11.546;2023-08-30T01:00:37;13.30;99.90
17986;DHT22;9118;48.122;11.546;2023-08-30T01:03:06;13.30;99.90
17986;DHT22;9118;48.122;11.546;2023-08-30T01:05:34;13.30;99.90
17986;DHT22;9118;48.122;11.546;2023-08-30T01:08:01;13.30;99.90
17986;DHT22;9118;48.122;11.546;2023-08-30T01:10:37;13.30;99.90
17986;DHT22;9118;48.122;11.546;2023-08-30T01:13:09;13.30;99.90
17986;DHT22;9118;48.122;11.546;2023-08-30T01:15:39;13.20;99.90
17986;DHT22;9118;48.122;11.546;2023-08-30T01:18:10;13.10;99.90
17986;DHT22;9118;48.122;11.546;2023-08-30T01:20:39;13.20;99.90
17986;DHT22;9118;48.122;11.546;2023-08-30T01:23:09;13.10;99.90
17986;DHT22;9118;48.122;11.546;2023-08-30T01:25:46;13.10;99.90
17986;DHT22;9118;48.122;11.546;2023-08-30T01:28:19;13.20;99.90
17986;DHT22;9118;48.122;11.546;2023-08-30T01:30:48;13.10;99.90
17986;DHT22;9118;48.122;11.546;2023-08-30T01:33:16;13.20;99.90
17986;DHT22;9118;48.122;11.546;2023-08-30T01:35:45;13.20;99.90
17986;DHT22;9118;48.122;11.546;2023-08-30T01:38:13;13.20;99.90
17986;DHT22;9118;48.122;11.546;2023-08-30T01:40:42;13.30;99.90
17986;DHT22;9118;48.122;11.546;2023-08-30T01:43:10;13.20;99.90
17986;DHT22;9118;48.122;11.546;2023-08-30T01:45:42;13.20;99.90
17986;DHT22;9118;48.122;11.546;2023-08-30T01:48:11;13.30;99.90
17986;DHT22;9118;48.122;11.546;2023-08-30T01:50:41;13.30;99.90
17986;DHT22;9118;48.122;11.546;2023-08-30T01:53:11;13.40;99.90
17986;DHT22;9118;48.122;11.546;2023-08-30T01:55:39;13.40;99.90
17986;DHT22;9118;48.122;11.546;2023-08-30T01:58:07;13.40;99.90
17986;DHT22;9118;48.122;11.546;2023-08-30T02:00:35;13.40;99.90
17986;DHT22;9118;48.122;11.546;2023-08-30T02:03:09;13.50;99.90
17986;DHT22;9118;48.122;11.546;2023-08-30T02:05:39;13.50;99.90
17986;DHT22;9118;48.122;11.546;2023-08-30T02:08:13;13.40;99.90
17986;DHT22;9118;48.122;11.546;2023-08-30T02:10:45;13.40;99.90
17986;DHT22;9118;48.122;11.546;2023-08-30T02:13:14;13.50;99.90
17986;DHT22;9118;48.122;11.546;2023-08-30T02:15:43;13.50;99.90
17986;DHT22;9118;48.122;11.546;2023-08-30T02:18:11;13.60;99.90
17986;DHT22;9118;48.122;11.546;2023-08-30T02:20:38;13.60;99.90
17986;DHT22;9118;48.122;11.546;2023-08-30T02:23:05;13.60;99.90
17986;DHT22;9118;48.122;11.546;2023-08-30T02:25:32;13.60;99.90
17986;DHT22;9118;48.122;11.546;2023-08-30T02:27:59;13.60;99.90
17986;DHT22;9118;48.122;11.546;2023-08-30T02:30:26;13.60;99.90
17986;DHT22;9118;48.122;11.546;2023-08-30T02:32:53;13.60;99.90
17986;DHT22;9118;48.122;11.546;2023-08-30T02:35:22;13.60;99.90
17986;DHT22;9118;48.122;11.546;2023-08-30T02:37:49;13.60;99.90
17986;DHT22;9118;48.122;11.546;2023-08-30T02:40:16;13.60;99.90
17986;DHT22;9118;48.122;11.546;2023-08-30T02:42:43;13.50;99.90
17986;DHT22;9118;48.122;11.546;2023-08-30T02:45:11;13.50;99.90
17986;DHT22;9118;48.122;11.546;2023-08-30T02:47:38;13.50;99.90
17986;DHT22;9118;48.122;11.546;2023-08-30T02:50:05;13.50;99.90
17986;DHT22;9118;48.122;11.546;2023-08-30T02:52:34;13.40;99.90
17986;DHT22;9118;48.122;11.546;2023-08-30T02:55:00;13.40;99.90
17986;DHT22;9118;48.122;11.546;2023-08-30T02:57:27;13.50;99.90
17986;DHT22;9118;48.122;11.546;2023-08-30T02:59:54;13.50;99.90
17986;DHT22;9118;48.122;11.546;2023-08-30T03:02:21;13.50;99.90
17986;DHT22;9118;48.122;11.546;2023-08-30T03:04:48;13.50;99.90
17986;DHT22;9118;48.122;11.546;2023-08-30T03:07:15;13.60;99.90
17986;DHT22;9118;48.122;11.546;2023-08-30T03:09:46;13.60;99.90
17986;DHT22;9118;48.122;11.546;2023-08-30T03:12:13;13.60;99.90
17986;DHT22;9118;48.122;11.546;2023-08-30T03:14:40;13.60;99.90
17986;DHT22;9118;48.122;11.546;2023-08-30T03:17:07;13.60;99.90
17986;DHT22;9118;48.122;11.546;2023-08-30T03:19:34;13.70;99.90
17986;DHT22;9118;48.122;11.546;2023-08-30T03:22:01;13.60;99.90
17986;DHT22;9118;48.122;11.546;2023-08-30T03:24:28;13.60;99.90
17986;DHT22;9118;48.122;11.546;2023-08-30T03:26:56;13.60;99.90
17986;DHT22;9118;48.122;11.546;2023-08-30T03:29:23;13.70;99.90
17986;DHT22;9118;48.122;11.546;2023-08-30T03:31:50;13.70;99.90
17986;DHT22;9118;48.122;11.546;2023-08-30T03:34:17;13.60;99.90
17986;DHT22;9118;48.122;11.546;2023-08-30T03:36:44;13.70;99.90
17986;DHT22;9118;48.122;11.546;2023-08-30T03:39:16;13.60;99.90
17986;DHT22;9118;48.122;11.546;2023-08-30T03:41:43;13.60;99.90
17986;DHT22;9118;48.122;11.546;2023-08-30T03:44:12;13.60;99.90
17986;DHT22;9118;48.122;11.546;2023-08-30T03:46:39;13.60;99.90
17986;DHT22;9118;48.122;11.546;2023-08-30T03:49:06;13.60;99.90
17986;DHT22;9118;48.122;11.546;2023-08-30T03:51:33;13.60;99.90
17986;DHT22;9118;48.122;11.546;2023-08-30T03:54:00;13.60;99.90
17986;DHT22;9118;48.122;11.546;2023-08-30T03:56:27;13.60;99.90
17986;DHT22;9118;48.122;11.546;2023-08-30T03:58:54;13.60;99.90
17986;DHT22;9118;48.122;11.546;2023-08-30T04:01:23;13.60;99.90
17986;DHT22;9118;48.122;11.546;2023-08-30T04:03:50;13.70;99.90
17986;DHT22;9118;48.122;11.546;2023-08-30T04:06:17;13.70;99.90
17986;DHT22;9118;48.122;11.546;2023-08-30T04:08:44;13.70;99.90
17986;DHT22;9118;48.122;11.546;2023-08-30T04:11:11;13.60;99.90
17986;DHT22;9118;48.122;11.546;2023-08-30T04:13:38;13.60;99.90
17986;DHT22;9118;48.122;11.546;2023-08-30T04:16:05;13.60;99.90
17986;DHT22;9118;48.122;11.546;2023-08-30T04:18:34;13.60;99.90
17986;DHT22;9118;48.122;11.546;2023-08-30T04:21:00;13.50;99.90
17986;DHT22;9118;48.122;11.546;2023-08-30T04:23:28;13.60;99.90
17986;DHT22;9118;48.122;11.546;2023-08-30T04:25:55;13.60;99.90
17986;DHT22;9118;48.122;11.546;2023-08-30T04:28:22;13.50;99.90
17986;DHT22;9118;48.122;11.546;2023-08-30T04:30:53;13.50;99.90
17986;DHT22;9118;48.122;11.546;2023-08-30T04:33:20;13.50;99.90
17986;DHT22;9118;48.122;11.546;2023-08-30T04:35:52;13.50;99.90
17986;DHT22;9118;48.122;11.546;2023-08-30T04:38:19;13.50;99.90
17986;DHT22;9118;48.122;11.546;2023-08-30T04:40:47;13.40;99.90
17986;DHT22;9118;48.122;11.546;2023-08-30T04:43:14;13.40;99.90
17986;DHT22;9118;48.122;11.546;2023-08-30T04:45:42;13.40;99.90
17986;DHT22;9118;48.122;11.546;2023-08-30T04:48:08;13.40;99.90
17986;DHT22;9118;48.122;11.546;2023-08-30T04:50:35;13.40;99.90
17986;DHT22;9118;48.122;11.546;2023-08-30T04:53:04;13.50;99.90
17986;DHT22;9118;48.122;11.546;2023-08-30T04:55:32;13.50;99.90
17986;DHT22;9118;48.122;11.546;2023-08-30T04:57:59;13.40;99.90
17986;DHT22;9118;48.122;11.546;2023-08-30T05:00:26;13.50;99.90
17986;DHT22;9118;48.122;11.546;2023-08-30T05:02:53;13.50;99.90
17986;DHT22;9118;48.122;11.546;2023-08-30T05:05:20;13.50;99.90
17986;DHT22;9118;48.122;11.546;2023-08-30T05:07:47;13.50;99.90
17986;DHT22;9118;48.122;11.546;2023-08-30T05:10:15;13.50;99.90
17986;DHT22;9118;48.122;11.546;2023-08-30T05:12:42;13.60;99.90
17986;DHT22;9118;48.122;11.546;2023-08-30T05:15:13;13.60;99.90
17986;DHT22;9118;48.122;11.546;2023-08-30T05:17:40;13.70;99.90
17986;DHT22;9118;48.122;11.546;2023-08-30T05:20:08;13.70;99.90
17986;DHT22;9118;48.122;11.546;2023-08-30T05:22:35;13.60;99.90
17986;DHT22;9118;48.122;11.546;2023-08-30T05:25:03;13.50;99.90
17986;DHT22;9118;48.122;11.546;2023-08-30T05:27:31;13.50;99.90
17986;DHT22;9118;48.122;11.546;2023-08-30T05:30:00;13.40;99.90
17986;DHT22;9118;48.122;11.546;2023-08-30T05:32:28;13.30;99.90
17986;DHT22;9118;48.122;11.546;2023-08-30T05:34:57;13.30;99.90
17986;DHT22;9118;48.122;11.546;2023-08-30T05:37:24;13.30;99.90
17986;DHT22;9118;48.122;11.546;2023-08-30T05:39:51;13.10;99.90
17986;DHT22;9118;48.122;11.546;2023-08-30T05:42:20;13.20;99.90
17986;DHT22;9118;48.122;11.546;2023-08-30T05:44:53;13.20;99.90
17986;DHT22;9118;48.122;11.546;2023-08-30T05:47:20;13.20;99.90
17986;DHT22;9118;48.122;11.546;2023-08-30T05:49:47;13.10;99.90
17986;DHT22;9118;48.122;11.546;2023-08-30T05:52:14;13.10;99.90
17986;DHT22;9118;48.122;11.546;2023-08-30T05:54:43;13.10;99.90
17986;DHT22;9118;48.122;11.546;2023-08-30T05:57:11;13.20;99.90
17986;DHT22;9118;48.122;11.546;2023-08-30T05:59:39;13.30;99.90
17986;DHT22;9118;48.122;11.546;2023-08-30T06:02:08;13.30;99.90
17986;DHT22;9118;48.122;11.546;2023-08-30T06:04:36;13.40;99.90
17986;DHT22;9118;48.122;11.546;2023-08-30T06:07:03;13.40;99.90
17986;DHT22;9118;48.122;11.546;2023-08-30T06:09:30;13.50;99.90
17986;DHT22;9118;48.122;11.546;2023-08-30T06:11:57;13.60;99.90
17986;DHT22;9118;48.122;11.546;2023-08-30T06:14:24;13.60;99.90
17986;DHT22;9118;48.122;11.546;2023-08-30T06:16:51;13.70;99.90
17986;DHT22;9118;48.122;11.546;2023-08-30T06:19:19;13.70;99.90
17986;DHT22;9118;48.122;11.546;2023-08-30T06:21:46;13.80;99.90
17986;DHT22;9118;48.122;11.546;2023-08-30T06:24:13;13.70;99.90
17986;DHT22;9118;48.122;11.546;2023-08-30T06:26:39;13.70;99.90
17986;DHT22;9118;48.122;11.546;2023-08-30T06:29:06;13.80;99.90
17986;DHT22;9118;48.122;11.546;2023-08-30T06:31:33;13.80;99.90
17986;DHT22;9118;48.122;11.546;2023-08-30T06:34:00;13.70;99.90
17986;DHT22;9118;48.122;11.546;2023-08-30T06:36:29;13.80;99.90
17986;DHT22;9118;48.122;11.546;2023-08-30T06:38:55;13.90;99.90
17986;DHT22;9118;48.122;11.546;2023-08-30T06:41:22;13.80;99.90
17986;DHT22;9118;48.122;11.546;2023-08-30T06:43:50;13.70;99.90
17986;DHT22;9118;48.122;11.546;2023-08-30T06:46:16;13.80;99.90
17986;DHT22;9118;48.122;11.546;2023-08-30T06:48:43;13.70;99.90
17986;DHT22;9118;48.122;11.546;2023-08-30T06:51:10;13.80;99.90
17986;DHT22;9118;48.122;11.546;2023-08-30T06:53:39;13.90;99.90
17986;DHT22;9118;48.122;11.546;2023-08-30T06:56:05;13.90;99.90
17986;DHT22;9118;48.122;11.546;2023-08-30T06:58:32;13.90;99.90
17986;DHT22;9118;48.122;11.546;2023-08-30T07:01:01;14.00;99.90
17986;DHT22;9118;48.122;11.546;2023-08-30T07:03:28;14.10;99.90
17986;DHT22;9118;48.122;11.546;2023-08-30T07:05:55;14.30;99.90
17986;DHT22;9118;48.122;11.546;2023-08-30T07:08:22;14.30;99.90
17986;DHT22;9118;48.122;11.546;2023-08-30T07:10:51;14.30;99.90
17986;DHT22;9118;48.122;11.546;2023-08-30T07:13:18;14.40;99.90
17986;DHT22;9118;48.122;11.546;2023-08-30T07:15:45;14.40;99.90
17986;DHT22;9118;48.122;11.546;2023-08-30T07:18:12;14.50;99.90
17986;DHT22;9118;48.122;11.546;2023-08-30T07:20:39;14.50;99.90
17986;DHT22;9118;48.122;11.546;2023-08-30T07:23:06;14.40;99.90
17986;DHT22;9118;48.122;11.546;2023-08-30T07:25:33;14.30;99.90
17986;DHT22;9118;48.122;11.546;2023-08-30T07:28:04;14.30;99.90
17986;DHT22;9118;48.122;11.546;2023-08-30T07:30:31;14.30;99.90
17986;DHT22;9118;48.122;11.546;2023-08-30T07:32:58;14.40;99.90
17986;DHT22;9118;48.122;11.546;2023-08-30T07:35:25;14.30;99.90
17986;DHT22;9118;48.122;11.546;2023-08-30T07:37:52;14.10;99.90
17986;DHT22;9118;48.122;11.546;2023-08-30T07:40:19;14.10;99.90
17986;DHT22;9118;48.122;11.546;2023-08-30T07:42:46;14.10;99.90
17986;DHT22;9118;48.122;11.546;2023-08-30T07:45:15;14.10;99.90
17986;DHT22;9118;48.122;11.546;2023-08-30T07:47:42;14.20;99.90
17986;DHT22;9118;48.122;11.546;2023-08-30T07:50:10;14.20;99.90
17986;DHT22;9118;48.122;11.546;2023-08-30T07:52:37;14.40;99.90
17986;DHT22;9118;48.122;11.546;2023-08-30T07:55:04;14.20;99.90
17986;DHT22;9118;48.122;11.546;2023-08-30T07:57:31;14.30;99.90
17986;DHT22;9118;48.122;11.546;2023-08-30T07:59:59;14.30;99.90
17986;DHT22;9118;48.122;11.546;2023-08-30T08:02:28;14.50;99.90
17986;DHT22;9118;48.122;11.546;2023-08-30T08:04:54;14.60;99.90
17986;DHT22;9118;48.122;11.546;2023-08-30T08:07:21;14.50;99.90
17986;DHT22;9118;48.122;11.546;2023-08-30T08:09:49;14.50;99.90
17986;DHT22;9118;48.122;11.546;2023-08-30T08:12:16;14.40;99.90
17986;DHT22;9118;48.122;11.546;2023-08-30T08:14:44;14.40;99.90
17986;DHT22;9118;48.122;11.546;2023-08-30T08:17:11;14.50;99.90
17986;DHT22;9118;48.122;11.546;2023-08-30T08:19:39;14.60;99.90
17986;DHT22;9118;48.122;11.546;2023-08-30T08:22:08;14.50;99.90
17986;DHT22;9118;48.122;11.546;2023-08-30T08:24:35;14.60;99.90
17986;DHT22;9118;48.122;11.546;2023-08-30T08:27:02;14.50;99.90
17986;DHT22;9118;48.122;11.546;2023-08-30T08:29:31;14.50;99.90
17986;DHT22;9118;48.122;11.546;2023-08-30T08:31:58;14.40;99.90
17986;DHT22;9118;48.122;11.546;2023-08-30T08:34:25;14.30;99.90
17986;DHT22;9118;48.122;11.546;2023-08-30T08:36:56;14.40;99.90
17986;DHT22;9118;48.122;11.546;2023-08-30T08:39:23;14.50;99.90
17986;DHT22;9118;48.122;11.546;2023-08-30T08:41:51;14.60;99.90
17986;DHT22;9118;48.122;11.546;2023-08-30T08:44:21;14.60;99.90
17986;DHT22;9118;48.122;11.546;2023-08-30T08:46:50;14.40;99.90
17986;DHT22;9118;48.122;11.546;2023-08-30T08:49:18;14.50;99.90
17986;DHT22;9118;48.122;11.546;2023-08-30T08:51:45;14.40;99.90
17986;DHT22;9118;48.122;11.546;2023-08-30T08:54:14;14.40;99.90
17986;DHT22;9118;48.122;11.546;2023-08-30T08:56:42;14.50;99.90
17986;DHT22;9118;48.122;11.546;2023-08-30T08:59:10;14.60;99.90
17986;DHT22;9118;48.122;11.546;2023-08-30T09:01:38;14.80;99.90
17986;DHT22;9118;48.122;11.546;2023-08-30T09:04:07;14.80;99.90
17986;DHT22;9118;48.122;11.546;2023-08-30T09:06:34;14.80;99.90
17986;DHT22;9118;48.122;11.546;2023-08-30T09:09:02;14.90;99.90
17986;DHT22;9118;48.122;11.546;2023-08-30T09:11:32;15.00;99.90
17986;DHT22;9118;48.122;11.546;2023-08-30T09:13:59;15.30;99.90
17986;DHT22;9118;48.122;11.546;2023-08-30T09:16:27;15.30;99.90
17986;DHT22;9118;48.122;11.546;2023-08-30T09:18:58;15.20;99.90
17986;DHT22;9118;48.122;11.546;2023-08-30T09:21:26;15.10;99.90
17986;DHT22;9118;48.122;11.546;2023-08-30T09:24:00;15.00;99.90
17986;DHT22;9118;48.122;11.546;2023-08-30T09:26:27;15.20;99.90
17986;DHT22;9118;48.122;11.546;2023-08-30T09:29:01;15.20;99.90
17986;DHT22;9118;48.122;11.546;2023-08-30T09:31:33;15.20;99.90
17986;DHT22;9118;48.122;11.546;2023-08-30T09:33:59;15.30;99.90
17986;DHT22;9118;48.122;11.546;2023-08-30T09:36:32;15.30;99.90
17986;DHT22;9118;48.122;11.546;2023-08-30T09:39:02;15.50;99.90
17986;DHT22;9118;48.122;11.546;2023-08-30T09:41:30;15.70;99.90
17986;DHT22;9118;48.122;11.546;2023-08-30T09:44:05;16.00;99.90
17986;DHT22;9118;48.122;11.546;2023-08-30T09:46:32;16.10;99.90
17986;DHT22;9118;48.122;11.546;2023-08-30T09:49:06;16.10;99.90
17986;DHT22;9118;48.122;11.546;2023-08-30T09:51:35;16.20;99.90
17986;DHT22;9118;48.122;11.546;2023-08-30T09:54:13;16.20;99.90
17986;DHT22;9118;48.122;11.546;2023-08-30T09:56:41;16.30;99.90
17986;DHT22;9118;48.122;11.546;2023-08-30T09:59:11;16.30;99.90
17986;DHT22;9118;48.122;11.546;2023-08-30T10:01:40;16.20;99.90
17986;DHT22;9118;48.122;11.546;2023-08-30T10:04:09;16.00;99.90
17986;DHT22;9118;48.122;11.546;2023-08-30T10:06:38;16.10;99.90
17986;DHT22;9118;48.122;11.546;2023-08-30T10:09:06;16.20;99.90
17986;DHT22;9118;48.122;11.546;2023-08-30T10:11:35;16.30;99.90
17986;DHT22;9118;48.122;11.546;2023-08-30T10:14:04;16.50;99.90
17986;DHT22;9118;48.122;11.546;2023-08-30T10:16:40;16.60;99.90
17986;DHT22;9118;48.122;11.546;2023-08-30T10:19:10;16.90;99.90
17986;DHT22;9118;48.122;11.546;2023-08-30T10:21:38;17.10;99.90
17986;DHT22;9118;48.122;11.546;2023-08-30T10:24:07;17.50;99.90
17986;DHT22;9118;48.122;11.546;2023-08-30T10:26:36;17.80;99.90
17986;DHT22;9118;48.122;11.546;2023-08-30T10:29:05;18.00;99.90
17986;DHT22;9118;48.122;11.546;2023-08-30T10:31:34;18.20;99.90
17986;DHT22;9118;48.122;11.546;2023-08-30T10:34:11;18.40;99.90
17986;DHT22;9118;48.122;11.546;2023-08-30T10:36:39;18.30;99.90
17986;DHT22;9118;48.122;11.546;2023-08-30T10:39:11;18.10;99.90
17986;DHT22;9118;48.122;11.546;2023-08-30T10:41:54;18.00;99.90
17986;DHT22;9118;48.122;11.546;2023-08-30T10:44:23;18.10;99.90
17986;DHT22;9118;48.122;11.546;2023-08-30T10:46:54;18.10;99.90
17986;DHT22;9118;48.122;11.546;2023-08-30T10:49:21;18.10;99.90
17986;DHT22;9118;48.122;11.546;2023-08-30T10:51:55;18.10;99.90
17986;DHT22;9118;48.122;11.546;2023-08-30T10:54:23;18.10;99.90
17986;DHT22;9118;48.122;11.546;2023-08-30T10:56:55;17.80;99.90
17986;DHT22;9118;48.122;11.546;2023-08-30T10:59:23;17.50;99.90
17986;DHT22;9118;48.122;11.546;2023-08-30T11:01:51;17.30;99.90
17986;DHT22;9118;48.122;11.546;2023-08-30T11:04:20;17.30;99.90
17986;DHT22;9118;48.122;11.546;2023-08-30T11:06:51;17.50;99.90
17986;DHT22;9118;48.122;11.546;2023-08-30T11:09:19;17.50;99.90
17986;DHT22;9118;48.122;11.546;2023-08-30T11:11:48;17.50;99.90
17986;DHT22;9118;48.122;11.546;2023-08-30T11:14:16;17.70;99.90
17986;DHT22;9118;48.122;11.546;2023-08-30T11:16:43;17.90;99.90
17986;DHT22;9118;48.122;11.546;2023-08-30T11:19:11;18.10;99.90
17986;DHT22;9118;48.122;11.546;2023-08-30T11:21:42;18.10;99.90
17986;DHT22;9118;48.122;11.546;2023-08-30T11:24:10;18.10;99.90
17986;DHT22;9118;48.122;11.546;2023-08-30T11:26:37;18.30;99.90
17986;DHT22;9118;48.122;11.546;2023-08-30T11:29:05;18.40;99.90
17986;DHT22;9118;48.122;11.546;2023-08-30T11:31:32;18.60;99.90
17986;DHT22;9118;48.122;11.546;2023-08-30T11:34:00;18.70;99.90
17986;DHT22;9118;48.122;11.546;2023-08-30T11:36:28;18.90;99.90
17986;DHT22;9118;48.122;11.546;2023-08-30T11:38:57;18.90;99.90
17986;DHT22;9118;48.122;11.546;2023-08-30T11:41:25;19.00;99.90
17986;DHT22;9118;48.122;11.546;2023-08-30T11:43:53;19.10;99.90
17986;DHT22;9118;48.122;11.546;2023-08-30T11:46:20;18.90;99.90
17986;DHT22;9118;48.122;11.546;2023-08-30T11:48:49;18.90;99.90
17986;DHT22;9118;48.122;11.546;2023-08-30T11:51:16;18.90;99.90
17986;DHT22;9118;48.122;11.546;2023-08-30T11:53:44;19.00;99.90
17986;DHT22;9118;48.122;11.546;2023-08-30T11:56:13;19.30;99.90
17986;DHT22;9118;48.122;11.546;2023-08-30T11:58:42;19.50;99.90
17986;DHT22;9118;48.122;11.546;2023-08-30T12:01:10;19.80;99.90
17986;DHT22;9118;48.122;11.546;2023-08-30T12:03:38;20.00;99.90
17986;DHT22;9118;48.122;11.546;2023-08-30T12:06:09;20.30;99.90
17986;DHT22;9118;48.122;11.546;2023-08-30T12:08:36;20.30;99.90
17986;DHT22;9118;48.122;11.546;2023-08-30T12:11:03;20.30;99.90
17986;DHT22;9118;48.122;11.546;2023-08-30T12:13:33;20.10;99.90
17986;DHT22;9118;48.122;11.546;2023-08-30T12:16:01;19.60;99.90
17986;DHT22;9118;48.122;11.546;2023-08-30T12:18:31;19.40;99.90
17986;DHT22;9118;48.122;11.546;2023-08-30T12:21:01;19.20;99.90
17986;DHT22;9118;48.122;11.546;2023-08-30T12:23:29;19.20;99.90
17986;DHT22;9118;48.122;11.546;2023-08-30T12:25:57;19.10;99.90
17986;DHT22;9118;48.122;11.546;2023-08-30T12:28:25;19.00;99.90
17986;DHT22;9118;48.122;11.546;2023-08-30T12:30:53;19.00;99.90
17986;DHT22;9118;48.122;11.546;2023-08-30T12:33:21;18.80;99.90
17986;DHT22;9118;48.122;11.546;2023-08-30T12:35:48;18.80;99.90
17986;DHT22;9118;48.122;11.546;2023-08-30T12:38:15;18.60;99.90
17986;DHT22;9118;48.122;11.546;2023-08-30T12:40:44;18.50;99.90
17986;DHT22;9118;48.122;11.546;2023-08-30T12:43:11;18.40;99.90
17986;DHT22;9118;48.122;11.546;2023-08-30T12:45:39;18.20;99.90
17986;DHT22;9118;48.122;11.546;2023-08-30T12:48:09;18.30;99.90
17986;DHT22;9118;48.122;11.546;2023-08-30T12:50:38;18.20;99.90
17986;DHT22;9118;48.122;11.546;2023-08-30T12:53:05;18.30;99.90
17986;DHT22;9118;48.122;11.546;2023-08-30T12:55:33;18.40;99.90
17986;DHT22;9118;48.122;11.546;2023-08-30T12:58:01;18.80;99.90
17986;DHT22;9118;48.122;11.546;2023-08-30T13:00:29;19.00;99.90
17986;DHT22;9118;48.122;11.546;2023-08-30T13:02:57;19.10;99.90
17986;DHT22;9118;48.122;11.546;2023-08-30T13:05:26;19.20;99.90
17986;DHT22;9118;48.122;11.546;2023-08-30T13:07:53;19.30;99.90
17986;DHT22;9118;48.122;11.546;2023-08-30T13:10:20;19.20;99.90
17986;DHT22;9118;48.122;11.546;2023-08-30T13:12:47;19.10;99.90
17986;DHT22;9118;48.122;11.546;2023-08-30T13:15:14;19.10;99.90
17986;DHT22;9118;48.122;11.546;2023-08-30T13:17:41;19.20;99.90
17986;DHT22;9118;48.122;11.546;2023-08-30T13:20:09;19.10;99.90
17986;DHT22;9118;48.122;11.546;2023-08-30T13:22:38;19.10;99.90
17986;DHT22;9118;48.122;11.546;2023-08-30T13:25:06;19.10;99.90
17986;DHT22;9118;48.122;11.546;2023-08-30T13:27:34;19.00;99.90
17986;DHT22;9118;48.122;11.546;2023-08-30T13:30:01;18.90;99.90
17986;DHT22;9118;48.122;11.546;2023-08-30T13:32:28;18.60;99.90
17986;DHT22;9118;48.122;11.546;2023-08-30T13:34:55;18.40;99.90
17986;DHT22;9118;48.122;11.546;2023-08-30T13:37:21;18.20;99.90
17986;DHT22;9118;48.122;11.546;2023-08-30T13:39:52;18.20;99.90
17986;DHT22;9118;48.122;11.546;2023-08-30T13:42:19;18.00;99.90
17986;DHT22;9118;48.122;11.546;2023-08-30T13:44:49;17.90;99.90
17986;DHT22;9118;48.122;11.546;2023-08-30T13:47:17;17.80;99.90
17986;DHT22;9118;48.122;11.546;2023-08-30T13:49:44;17.80;99.90
17986;DHT22;9118;48.122;11.546;2023-08-30T13:52:11;17.50;99.90
17986;DHT22;9118;48.122;11.546;2023-08-30T13:54:38;17.30;99.90
17986;DHT22;9118;48.122;11.546;2023-08-30T13:57:06;17.20;99.90
17986;DHT22;9118;48.122;11.546;2023-08-30T13:59:33;17.20;99.90
17986;DHT22;9118;48.122;11.546;2023-08-30T14:02:02;17.20;99.90
17986;DHT22;9118;48.122;11.546;2023-08-30T14:04:30;17.20;99.90
17986;DHT22;9118;48.122;11.546;2023-08-30T14:06:59;17.10;99.90
17986;DHT22;9118;48.122;11.546;2023-08-30T14:09:28;17.00;99.90
17986;DHT22;9118;48.122;11.546;2023-08-30T14:11:55;17.10;99.90
17986;DHT22;9118;48.122;11.546;2023-08-30T14:14:23;17.30;99.90
17986;DHT22;9118;48.122;11.546;2023-08-30T14:16:50;17.40;99.90
17986;DHT22;9118;48.122;11.546;2023-08-30T14:19:17;17.50;99.90
17986;DHT22;9118;48.122;11.546;2023-08-30T14:21:44;17.60;99.90
17986;DHT22;9118;48.122;11.546;2023-08-30T14:24:11;17.70;99.90
17986;DHT22;9118;48.122;11.546;2023-08-30T14:26:39;17.80;99.90
17986;DHT22;9118;48.122;11.546;2023-08-30T14:29:06;18.00;99.90
17986;DHT22;9118;48.122;11.546;2023-08-30T14:31:34;18.10;99.90
17986;DHT22;9118;48.122;11.546;2023-08-30T14:34:02;18.40;99.90
17986;DHT22;9118;48.122;11.546;2023-08-30T14:36:29;18.50;99.90
17986;DHT22;9118;48.122;11.546;2023-08-30T14:38:56;18.80;99.90
17986;DHT22;9118;48.122;11.546;2023-08-30T14:41:23;19.10;99.90
17986;DHT22;9118;48.122;11.546;2023-08-30T14:43:50;19.40;99.90
17986;DHT22;9118;48.122;11.546;2023-08-30T14:46:17;19.60;99.90
17986;DHT22;9118;48.122;11.546;2023-08-30T14:48:46;19.80;99.90
17986;DHT22;9118;48.122;11.546;2023-08-30T14:51:13;20.00;99.90
17986;DHT22;9118;48.122;11.546;2023-08-30T14:53:40;20.10;99.90
17986;DHT22;9118;48.122;11.546;2023-08-30T14:56:07;20.10;99.90
17986;DHT22;9118;48.122;11.546;2023-08-30T14:58:36;20.00;99.90
17986;DHT22;9118;48.122;11.546;2023-08-30T15:01:04;19.90;99.90
17986;DHT22;9118;48.122;11.546;2023-08-30T15:03:30;19.90;99.90
17986;DHT22;9118;48.122;11.546;2023-08-30T15:05:59;19.80;99.90
17986;DHT22;9118;48.122;11.546;2023-08-30T15:08:26;19.50;99.90
17986;DHT22;9118;48.122;11.546;2023-08-30T15:10:53;19.50;99.90
17986;DHT22;9118;48.122;11.546;2023-08-30T15:13:20;19.50;99.90
17986;DHT22;9118;48.122;11.546;2023-08-30T15:15:48;19.60;99.90
17986;DHT22;9118;48.122;11.546;2023-08-30T15:18:15;19.80;99.90
17986;DHT22;9118;48.122;11.546;2023-08-30T15:20:42;20.50;99.90
17986;DHT22;9118;48.122;11.546;2023-08-30T15:23:13;21.80;99.90
17986;DHT22;9118;48.122;11.546;2023-08-30T15:25:44;23.40;99.90
17986;DHT22;9118;48.122;11.546;2023-08-30T15:28:12;24.70;99.90
17986;DHT22;9118;48.122;11.546;2023-08-30T15:30:41;25.90;99.90
17986;DHT22;9118;48.122;11.546;2023-08-30T15:33:08;26.70;99.90
17986;DHT22;9118;48.122;11.546;2023-08-30T15:35:37;27.80;99.90